createdAt,value
2022-09-30T00:00:56.213Z,8.97
2022-09-30T00:03:24.135Z,10.43
2022-09-30T00:06:07.676Z,9.93
2022-09-30T00:08:36.267Z,8.90
2022-09-30T00:11:23.117Z,8.77
2022-09-30T00:13:51.846Z,8.90
2022-09-30T00:16:21.144Z,8.90
2022-09-30T00:18:48.419Z,9.30
2022-09-30T00:21:16.316Z,9.20
2022-09-30T00:23:44.087Z,8.90
2022-09-30T00:26:13.225Z,10.40
2022-09-30T00:28:40.666Z,9.03
2022-09-30T00:31:10.884Z,9.63
2022-09-30T00:33:37.592Z,9.33
2022-09-30T00:36:04.366Z,9.13
2022-09-30T00:38:31.187Z,9.03
2022-09-30T00:40:59.656Z,9.07
2022-09-30T00:43:46.564Z,9.77
2022-09-30T00:46:44.412Z,9.50
2022-09-30T00:49:14.655Z,9.47
2022-09-30T00:51:47.681Z,8.17
2022-09-30T00:54:20.765Z,9.07
2022-09-30T00:56:51.778Z,9.27
2022-09-30T00:59:24.141Z,8.93
2022-09-30T01:01:50.983Z,8.90
2022-09-30T01:04:20.715Z,9.63
2022-09-30T01:06:47.903Z,7.57
2022-09-30T01:09:14.837Z,8.30
2022-09-30T01:11:41.383Z,8.40
2022-09-30T01:14:09.197Z,8.30
2022-09-30T01:16:47.112Z,9.70
2022-09-30T01:19:58.228Z,8.80
2022-09-30T01:22:27.377Z,9.70
2022-09-30T01:25:15.577Z,8.10
2022-09-30T01:28:05.547Z,8.73
2022-09-30T01:30:50.790Z,8.50
2022-09-30T01:33:43.058Z,8.53
2022-09-30T01:36:21.934Z,7.53
2022-09-30T01:39:13.496Z,7.30
2022-09-30T01:41:52.290Z,8.17
2022-09-30T01:44:37.963Z,8.53
2022-09-30T01:47:15.339Z,8.10
2022-09-30T01:49:50.346Z,8.80
2022-09-30T01:52:23.190Z,8.97
2022-09-30T01:55:11.622Z,7.73
2022-09-30T01:57:56.578Z,7.80
2022-09-30T02:00:23.166Z,8.13
2022-09-30T02:03:02.719Z,7.73
2022-09-30T02:05:36.793Z,8.23
2022-09-30T02:08:32.008Z,8.40
2022-09-30T02:11:02.810Z,8.77
2022-09-30T02:13:49.783Z,7.43
2022-09-30T02:16:23.040Z,8.10
2022-09-30T02:18:56.189Z,7.53
2022-09-30T02:21:30.354Z,7.33
2022-09-30T02:24:08.877Z,8.10
2022-09-30T02:26:41.765Z,8.37
2022-09-30T02:29:13.352Z,8.13
2022-09-30T02:31:41.738Z,7.23
2022-09-30T02:34:13.714Z,7.67
2022-09-30T02:36:45.062Z,7.20
2022-09-30T02:39:16.570Z,8.20
2022-09-30T02:41:51.621Z,7.10
2022-09-30T02:44:19.548Z,8.10
2022-09-30T02:46:57.244Z,7.43
2022-09-30T02:49:40.227Z,7.00
2022-09-30T02:52:21.096Z,6.80
2022-09-30T02:55:10.065Z,7.00
2022-09-30T02:58:01.012Z,7.30
2022-09-30T03:00:27.762Z,7.37
2022-09-30T03:02:57.174Z,7.37
2022-09-30T03:05:23.769Z,7.83
2022-09-30T03:07:50.676Z,7.00
2022-09-30T03:10:17.707Z,7.23
2022-09-30T03:13:00.684Z,7.57
2022-09-30T03:15:37.215Z,8.07
2022-09-30T03:18:28.556Z,7.17
2022-09-30T03:20:55.023Z,8.17
2022-09-30T03:23:42.724Z,7.37
2022-09-30T03:26:24.454Z,7.10
2022-09-30T03:29:22.723Z,7.30
2022-09-30T03:32:16.897Z,7.97
2022-09-30T03:34:55.383Z,7.10
2022-09-30T03:37:52.827Z,7.63
2022-09-30T03:40:39.478Z,7.87
2022-09-30T03:43:19.346Z,8.17
2022-09-30T03:46:01.742Z,7.90
2022-09-30T03:48:30.056Z,6.90
2022-09-30T03:50:56.894Z,8.20
2022-09-30T03:53:23.718Z,7.13
2022-09-30T03:55:52.860Z,8.13
2022-09-30T03:58:20.703Z,7.70
2022-09-30T04:00:53.215Z,7.20
2022-09-30T04:03:22.049Z,8.17
2022-09-30T04:05:49.300Z,7.23
2022-09-30T04:08:16.358Z,8.10
2022-09-30T04:10:46.602Z,7.30
2022-09-30T04:13:13.400Z,8.10
2022-09-30T04:15:40.689Z,7.30
2022-09-30T04:18:07.776Z,7.70
2022-09-30T04:20:34.286Z,7.40
2022-09-30T04:23:01.630Z,7.73
2022-09-30T04:25:28.904Z,8.27
2022-09-30T04:27:56.224Z,7.77
2022-09-30T04:30:26.360Z,7.00
2022-09-30T04:32:52.953Z,8.27
2022-09-30T04:35:19.936Z,7.47
2022-09-30T04:37:47.514Z,8.27
2022-09-30T04:40:15.877Z,7.10
2022-09-30T04:42:43.242Z,7.67
2022-09-30T04:45:11.084Z,8.03
2022-09-30T04:47:37.672Z,7.53
2022-09-30T04:50:05.570Z,7.47
2022-09-30T04:52:32.069Z,7.73
2022-09-30T04:54:58.720Z,7.40
2022-09-30T04:57:25.569Z,7.80
2022-09-30T04:59:52.291Z,7.90
2022-09-30T05:02:18.947Z,7.87
2022-09-30T05:04:45.659Z,6.57
2022-09-30T05:07:12.129Z,6.60
2022-09-30T05:09:38.850Z,6.33
2022-09-30T05:12:05.513Z,7.27
2022-09-30T05:14:33.308Z,7.50
2022-09-30T05:16:59.878Z,6.87
2022-09-30T05:19:26.439Z,7.53
2022-09-30T05:21:52.930Z,7.70
2022-09-30T05:24:19.421Z,7.80
2022-09-30T05:26:45.969Z,9.27
2022-09-30T05:29:12.593Z,8.20
2022-09-30T05:31:39.884Z,7.90
2022-09-30T05:34:06.533Z,9.10
2022-09-30T05:36:33.136Z,7.60
2022-09-30T05:38:59.565Z,8.80
2022-09-30T05:41:26.229Z,8.20
2022-09-30T05:43:52.813Z,7.87
2022-09-30T05:46:20.245Z,7.37
2022-09-30T05:48:46.974Z,8.70
2022-09-30T05:51:13.766Z,7.17
2022-09-30T05:53:41.176Z,7.73
2022-09-30T05:56:08.968Z,9.70
2022-09-30T05:58:36.252Z,8.00
2022-09-30T06:01:13.093Z,8.87
2022-09-30T06:03:40.908Z,8.23
2022-09-30T06:06:08.043Z,8.07
2022-09-30T06:08:34.749Z,7.87
2022-09-30T06:11:02.310Z,7.50
2022-09-30T06:13:29.617Z,7.67
2022-09-30T06:16:00.474Z,7.40
2022-09-30T06:18:28.177Z,7.03
2022-09-30T06:21:02.894Z,8.70
2022-09-30T06:23:30.271Z,7.50
2022-09-30T06:25:58.382Z,8.10
2022-09-30T06:28:24.916Z,8.30
2022-09-30T06:30:51.341Z,8.80
2022-09-30T06:33:17.929Z,8.40
2022-09-30T06:35:45.789Z,8.30
2022-09-30T06:38:13.312Z,8.33
2022-09-30T06:40:40.380Z,7.60
2022-09-30T06:43:07.199Z,8.90
2022-09-30T06:45:35.645Z,9.13
2022-09-30T06:48:03.848Z,9.13
2022-09-30T06:50:31.592Z,9.20
2022-09-30T06:53:02.737Z,8.57
2022-09-30T06:55:30.082Z,9.03
2022-09-30T06:57:57.090Z,8.57
2022-09-30T07:00:25.748Z,8.30
2022-09-30T07:02:55.124Z,8.83
2022-09-30T07:05:21.626Z,8.47
2022-09-30T07:07:49.115Z,9.57
2022-09-30T07:10:15.711Z,9.30
2022-09-30T07:12:42.226Z,9.00
2022-09-30T07:15:13.514Z,9.47
2022-09-30T07:17:40.762Z,9.90
2022-09-30T07:20:08.261Z,9.40
2022-09-30T07:22:34.751Z,9.63
2022-09-30T07:25:05.554Z,10.63
2022-09-30T07:27:33.896Z,9.37
2022-09-30T07:30:10.196Z,10.20
2022-09-30T07:32:39.236Z,10.00
2022-09-30T07:35:06.353Z,11.03
2022-09-30T07:37:35.990Z,10.47
2022-09-30T07:40:08.506Z,10.70
2022-09-30T07:42:38.226Z,10.57
2022-09-30T07:45:05.148Z,11.47
2022-09-30T07:47:31.644Z,10.67
2022-09-30T07:49:58.158Z,12.53
2022-09-30T07:52:24.705Z,10.83
2022-09-30T07:54:51.223Z,12.00
2022-09-30T07:57:18.084Z,10.00
2022-09-30T07:59:44.678Z,11.27
2022-09-30T08:02:15.451Z,10.70
2022-09-30T08:04:44.264Z,11.47
2022-09-30T08:07:11.496Z,10.87
2022-09-30T08:09:38.077Z,11.20
2022-09-30T08:12:05.472Z,12.00
2022-09-30T08:14:32.356Z,11.87
2022-09-30T08:17:00.355Z,11.30
2022-09-30T08:19:29.242Z,11.13
2022-09-30T08:21:55.886Z,10.13
2022-09-30T08:24:23.953Z,11.07
2022-09-30T08:26:51.104Z,9.70
2022-09-30T08:29:20.657Z,8.90
2022-09-30T08:31:56.815Z,10.20
2022-09-30T08:34:23.938Z,10.03
2022-09-30T08:36:50.458Z,8.80
2022-09-30T08:39:16.937Z,9.60
2022-09-30T08:42:18.991Z,20.43
2022-09-30T08:45:06.639Z,8.23
2022-09-30T08:47:54.996Z,8.63
2022-09-30T08:50:39.708Z,10.00
2022-09-30T08:53:11.863Z,9.10
2022-09-30T08:55:43.797Z,7.97
2022-09-30T08:58:21.633Z,9.70
2022-09-30T09:00:50.285Z,7.97
2022-09-30T09:03:20.371Z,8.93
2022-09-30T09:05:58.928Z,9.23
2022-09-30T09:09:03.332Z,8.60
2022-09-30T09:11:49.155Z,7.60
2022-09-30T09:14:40.842Z,7.67
2022-09-30T09:17:22.378Z,7.30
2022-09-30T09:20:20.220Z,7.73
2022-09-30T09:22:46.722Z,7.27
2022-09-30T09:25:16.531Z,7.70
2022-09-30T09:28:22.932Z,6.97
2022-09-30T09:30:52.994Z,7.30
2022-09-30T09:33:22.911Z,6.10
2022-09-30T09:36:00.934Z,6.50
2022-09-30T09:38:36.007Z,5.90
2022-09-30T09:41:41.209Z,6.57
2022-09-30T09:44:22.250Z,6.20
2022-09-30T09:47:14.002Z,7.43
2022-09-30T09:49:42.823Z,6.60
2022-09-30T09:52:12.716Z,6.10
2022-09-30T09:54:43.850Z,6.67
2022-09-30T09:57:12.888Z,7.17
2022-09-30T09:59:56.579Z,6.53
2022-09-30T10:02:31.489Z,6.07
2022-09-30T10:05:03.577Z,6.10
2022-09-30T10:07:34.117Z,5.37
2022-09-30T10:10:23.391Z,5.30
2022-09-30T10:12:50.543Z,6.43
2022-09-30T10:15:26.264Z,4.80
2022-09-30T10:17:57.538Z,6.27
2022-09-30T10:20:32.484Z,5.73
2022-09-30T10:23:21.070Z,6.60
2022-09-30T10:26:00.675Z,5.13
2022-09-30T10:28:30.052Z,4.70
2022-09-30T10:31:07.947Z,4.50
2022-09-30T10:33:44.965Z,4.90
2022-09-30T10:36:18.234Z,4.53
2022-09-30T10:39:01.218Z,4.90
2022-09-30T10:41:32.479Z,4.60
2022-09-30T10:44:01.558Z,5.30
2022-09-30T10:46:31.661Z,4.30
2022-09-30T10:48:59.078Z,6.03
2022-09-30T10:51:34.057Z,5.10
2022-09-30T10:54:01.323Z,4.47
2022-09-30T10:56:45.513Z,4.60
2022-09-30T10:59:29.094Z,3.80
2022-09-30T11:02:29.649Z,4.30
2022-09-30T11:04:59.276Z,3.77
2022-09-30T11:07:30.430Z,4.90
2022-09-30T11:10:04.038Z,4.07
2022-09-30T11:12:39.041Z,3.47
2022-09-30T11:15:22.465Z,4.27
2022-09-30T11:17:55.225Z,5.57
2022-09-30T11:20:25.665Z,4.90
2022-09-30T11:23:00.650Z,4.10
2022-09-30T11:25:34.145Z,4.53
2022-09-30T11:28:20.163Z,4.10
2022-09-30T11:31:06.232Z,3.80
2022-09-30T11:33:56.439Z,3.80
2022-09-30T11:36:54.373Z,3.37
2022-09-30T11:39:25.336Z,3.60
2022-09-30T11:42:07.827Z,3.90
2022-09-30T11:44:36.070Z,4.13
2022-09-30T11:47:09.637Z,3.90
2022-09-30T11:49:44.896Z,3.77
2022-09-30T11:52:53.056Z,3.70
2022-09-30T11:55:48.924Z,3.87
2022-09-30T11:58:40.331Z,3.07
2022-09-30T12:01:38.105Z,2.97
2022-09-30T12:04:15.483Z,3.10
2022-09-30T12:06:56.281Z,3.07
2022-09-30T12:09:26.109Z,3.60
2022-09-30T12:12:07.918Z,3.40
2022-09-30T12:14:50.107Z,4.37
2022-09-30T12:17:31.399Z,3.80
2022-09-30T12:20:03.523Z,2.97
2022-09-30T12:22:41.751Z,3.00
2022-09-30T12:25:21.264Z,2.73
2022-09-30T12:27:56.658Z,2.97
2022-09-30T12:30:24.033Z,2.90
2022-09-30T12:32:59.571Z,3.20
2022-09-30T12:36:04.678Z,2.93
2022-09-30T12:39:03.593Z,3.10
2022-09-30T12:41:40.827Z,3.63
2022-09-30T12:44:46.124Z,4.30
2022-09-30T12:47:30.341Z,3.80
2022-09-30T12:49:58.979Z,3.67
2022-09-30T12:52:26.434Z,3.10
2022-09-30T12:54:59.476Z,2.90
2022-09-30T12:57:29.926Z,3.60
2022-09-30T13:00:04.412Z,3.23
2022-09-30T13:02:37.483Z,2.80
2022-09-30T13:05:39.121Z,3.07
2022-09-30T13:08:05.614Z,2.93
2022-09-30T13:10:32.081Z,3.23
2022-09-30T13:13:10.826Z,2.93
2022-09-30T13:15:42.844Z,2.67
2022-09-30T13:18:21.968Z,2.97
2022-09-30T13:20:59.081Z,2.70
2022-09-30T13:23:55.973Z,3.10
2022-09-30T13:26:22.362Z,2.80
2022-09-30T13:28:50.232Z,3.73
2022-09-30T13:31:19.179Z,3.07
2022-09-30T13:34:02.031Z,3.47
2022-09-30T13:36:40.725Z,3.53
2022-09-30T13:39:25.619Z,3.27
2022-09-30T13:41:55.217Z,3.17
2022-09-30T13:44:30.978Z,3.47
2022-09-30T13:47:02.068Z,3.27
2022-09-30T13:49:57.167Z,3.50
2022-09-30T13:52:28.241Z,3.17
2022-09-30T13:54:55.717Z,3.37
2022-09-30T13:57:28.034Z,3.27
2022-09-30T14:00:16.272Z,3.43
2022-09-30T14:02:48.366Z,2.40
2022-09-30T14:05:29.587Z,2.93
2022-09-30T14:08:15.888Z,2.80
2022-09-30T14:10:48.829Z,3.03
2022-09-30T14:13:24.265Z,2.73
2022-09-30T14:16:06.744Z,2.40
2022-09-30T14:18:44.208Z,2.57
2022-09-30T14:21:38.732Z,2.33
2022-09-30T14:24:16.171Z,2.80
2022-09-30T14:27:12.978Z,2.80
2022-09-30T14:30:10.534Z,2.67
2022-09-30T14:32:56.757Z,2.50
2022-09-30T14:35:28.178Z,2.77
2022-09-30T14:37:58.011Z,2.40
2022-09-30T14:40:29.881Z,2.77
2022-09-30T14:43:02.654Z,1.80
2022-09-30T14:45:32.852Z,2.13
2022-09-30T14:48:15.151Z,2.00
2022-09-30T14:50:46.867Z,2.07
2022-09-30T14:53:35.789Z,1.70
2022-09-30T14:56:07.069Z,2.37
2022-09-30T14:58:42.458Z,2.50
2022-09-30T15:01:17.541Z,3.13
2022-09-30T15:03:56.404Z,2.73
2022-09-30T15:06:29.519Z,2.00
2022-09-30T15:09:02.550Z,2.13
2022-09-30T15:11:29.753Z,2.10
2022-09-30T15:14:08.584Z,2.00
2022-09-30T15:16:44.693Z,2.50
2022-09-30T15:19:23.704Z,2.13
2022-09-30T15:21:51.215Z,2.37
2022-09-30T15:24:19.427Z,1.70
2022-09-30T15:26:48.927Z,2.23
2022-09-30T15:29:16.647Z,3.20
2022-09-30T15:31:49.100Z,5.10
2022-09-30T15:34:20.380Z,2.07
2022-09-30T15:36:57.919Z,5.60
2022-09-30T15:39:47.572Z,4.40
2022-09-30T15:42:27.918Z,3.07
2022-09-30T15:44:54.615Z,2.83
2022-09-30T15:47:21.112Z,2.93
2022-09-30T15:49:52.960Z,2.60
2022-09-30T15:52:41.167Z,2.13
2022-09-30T15:55:38.032Z,2.90
2022-09-30T15:58:05.510Z,2.67
2022-09-30T16:00:34.425Z,2.30
2022-09-30T16:03:18.970Z,2.07
2022-09-30T16:05:48.664Z,2.50
2022-09-30T16:08:23.119Z,2.10
2022-09-30T16:10:52.688Z,3.10
2022-09-30T16:13:22.173Z,3.88
2022-09-30T16:15:50.985Z,3.77
2022-09-30T16:18:20.443Z,2.00
2022-09-30T16:21:02.210Z,3.40
2022-09-30T16:23:37.195Z,2.60
2022-09-30T16:26:32.409Z,2.47
2022-09-30T16:29:05.936Z,1.50
2022-09-30T16:31:36.260Z,2.40
2022-09-30T16:34:03.087Z,1.93
2022-09-30T16:36:29.896Z,1.80
2022-09-30T16:38:56.601Z,2.00
2022-09-30T16:41:25.214Z,2.17
2022-09-30T16:43:51.730Z,2.13
2022-09-30T16:46:18.406Z,2.63
2022-09-30T16:48:44.978Z,2.40
2022-09-30T16:51:14.834Z,1.77
2022-09-30T16:53:41.764Z,1.90
2022-09-30T16:56:16.597Z,1.90
2022-09-30T16:58:44.164Z,2.30
2022-09-30T17:01:19.967Z,4.73
2022-09-30T17:03:47.064Z,4.40
2022-09-30T17:06:14.753Z,3.50
2022-09-30T17:08:41.422Z,2.90
2022-09-30T17:11:08.214Z,2.57
2022-09-30T17:13:35.549Z,2.33
2022-09-30T17:16:02.371Z,1.97
2022-09-30T17:18:29.195Z,1.97
2022-09-30T17:20:56.484Z,1.73
2022-09-30T17:23:25.063Z,2.17
2022-09-30T17:25:52.355Z,1.93
2022-09-30T17:28:19.306Z,2.40
2022-09-30T17:30:48.061Z,2.80
2022-09-30T17:33:19.677Z,2.53
2022-09-30T17:35:59.306Z,2.57
2022-09-30T17:38:25.896Z,2.47
2022-09-30T17:41:11.241Z,3.30
2022-09-30T17:43:37.835Z,3.57
2022-09-30T17:46:04.502Z,2.20
2022-09-30T17:48:31.194Z,4.23
2022-09-30T17:50:58.029Z,6.30
2022-09-30T17:53:24.996Z,8.73
2022-09-30T17:56:02.466Z,4.20
2022-09-30T17:58:29.302Z,6.60
2022-09-30T18:00:58.721Z,2.87
2022-09-30T18:03:26.309Z,2.83
2022-09-30T18:05:59.433Z,2.60
2022-09-30T18:08:26.249Z,2.40
2022-09-30T18:10:52.871Z,1.87
2022-09-30T18:13:19.463Z,2.30
2022-09-30T18:15:46.688Z,2.47
2022-09-30T18:18:13.763Z,2.60
2022-09-30T18:20:47.691Z,2.40
2022-09-30T18:23:16.547Z,2.73
2022-09-30T18:25:43.916Z,45.27
2022-09-30T18:28:11.361Z,36.53
2022-09-30T18:30:39.272Z,21.40
2022-09-30T18:33:07.314Z,11.60
2022-09-30T18:35:35.716Z,12.83
2022-09-30T18:38:02.498Z,14.57
2022-09-30T18:40:30.144Z,13.27
2022-09-30T18:43:02.689Z,11.43
2022-09-30T18:45:30.849Z,7.00
2022-09-30T18:47:59.543Z,7.27
2022-09-30T18:50:28.288Z,5.20
2022-09-30T18:52:55.773Z,5.30
2022-09-30T18:55:22.454Z,5.37
2022-09-30T18:57:50.334Z,4.17
2022-09-30T19:00:17.800Z,4.93
2022-09-30T19:02:44.908Z,5.83
2022-09-30T19:05:13.087Z,5.37
2022-09-30T19:07:39.688Z,4.53
2022-09-30T19:10:12.488Z,4.70
2022-09-30T19:12:40.321Z,3.73
2022-09-30T19:15:09.506Z,3.67
2022-09-30T19:17:37.402Z,3.97
2022-09-30T19:20:05.697Z,3.80
2022-09-30T19:22:37.151Z,3.53
2022-09-30T19:25:11.057Z,3.60
2022-09-30T19:27:39.127Z,4.23
2022-09-30T19:30:07.252Z,3.90
2022-09-30T19:32:36.628Z,3.53
2022-09-30T19:35:06.600Z,4.17
2022-09-30T19:37:34.432Z,3.33
2022-09-30T19:40:10.465Z,3.13
2022-09-30T19:42:42.945Z,3.20
2022-09-30T19:45:11.737Z,2.57
2022-09-30T19:47:38.229Z,2.67
2022-09-30T19:50:05.601Z,2.80
2022-09-30T19:52:33.734Z,2.73
2022-09-30T19:55:12.911Z,2.70
2022-09-30T19:57:42.790Z,2.43
2022-09-30T20:00:11.653Z,2.60
2022-09-30T20:02:38.363Z,2.90
2022-09-30T20:05:05.290Z,2.53
2022-09-30T20:07:32.029Z,2.10
2022-09-30T20:09:58.520Z,2.70
2022-09-30T20:12:25.293Z,2.80
2022-09-30T20:15:10.561Z,2.67
2022-09-30T20:17:37.056Z,2.50
2022-09-30T20:20:23.357Z,2.60
2022-09-30T20:22:49.864Z,3.00
2022-09-30T20:25:16.898Z,3.10
2022-09-30T20:27:48.630Z,2.13
2022-09-30T20:30:18.532Z,3.10
2022-09-30T20:32:45.036Z,2.80
2022-09-30T20:35:11.604Z,2.73
2022-09-30T20:37:39.566Z,2.73
2022-09-30T20:40:09.102Z,2.90
2022-09-30T20:42:37.814Z,3.00
2022-09-30T20:45:06.183Z,2.57
2022-09-30T20:47:33.029Z,3.37
2022-09-30T20:49:59.596Z,2.57
2022-09-30T20:52:26.043Z,2.47
2022-09-30T20:54:53.097Z,2.50
2022-09-30T20:57:19.572Z,2.70
2022-09-30T20:59:47.182Z,2.67
2022-09-30T21:02:14.042Z,3.07
2022-09-30T21:04:41.328Z,2.40
2022-09-30T21:07:07.818Z,2.40
2022-09-30T21:09:37.187Z,2.80
2022-09-30T21:12:03.934Z,2.37
2022-09-30T21:14:30.411Z,2.60
2022-09-30T21:16:56.863Z,2.27
2022-09-30T21:19:23.407Z,2.10
2022-09-30T21:21:49.880Z,2.20
2022-09-30T21:24:16.380Z,2.37
2022-09-30T21:26:43.408Z,2.33
2022-09-30T21:29:09.913Z,2.83
2022-09-30T21:31:37.809Z,3.00
2022-09-30T21:34:04.816Z,2.30
2022-09-30T21:36:32.103Z,2.90
2022-09-30T21:39:04.874Z,3.60
2022-09-30T21:41:33.458Z,2.43
2022-09-30T21:44:01.327Z,2.30
2022-09-30T21:46:29.453Z,2.10
2022-09-30T21:49:18.870Z,2.67
2022-09-30T21:51:46.133Z,2.63
2022-09-30T21:54:13.910Z,2.40
2022-09-30T21:56:42.696Z,2.50
2022-09-30T21:59:09.818Z,2.80
2022-09-30T22:01:37.510Z,2.83
2022-09-30T22:04:04.978Z,3.90
2022-09-30T22:06:31.901Z,2.27
2022-09-30T22:09:01.377Z,2.30
2022-09-30T22:11:29.352Z,2.20
2022-09-30T22:13:57.507Z,2.27
2022-09-30T22:16:27.824Z,2.90
2022-09-30T22:18:55.857Z,2.50
2022-09-30T22:21:22.402Z,2.50
2022-09-30T22:23:49.518Z,2.53
2022-09-30T22:26:18.441Z,2.50
2022-09-30T22:28:46.259Z,2.73
2022-09-30T22:31:19.884Z,2.77
2022-09-30T22:34:06.196Z,3.30
2022-09-30T22:36:51.318Z,2.80
2022-09-30T22:39:18.413Z,3.03
2022-09-30T22:41:45.161Z,2.80
2022-09-30T22:44:11.820Z,2.97
2022-09-30T22:46:39.349Z,3.10
2022-09-30T22:49:06.298Z,2.87
2022-09-30T22:51:33.278Z,2.87
2022-09-30T22:54:01.295Z,2.97
2022-09-30T22:56:27.875Z,3.10
2022-09-30T22:58:54.616Z,3.10
2022-09-30T23:01:21.747Z,3.67
2022-09-30T23:03:53.884Z,3.10
2022-09-30T23:06:20.985Z,3.10
2022-09-30T23:08:47.677Z,3.00
2022-09-30T23:11:18.660Z,3.03
2022-09-30T23:13:46.356Z,2.80
2022-09-30T23:16:14.580Z,2.80
2022-09-30T23:18:41.684Z,3.50
2022-09-30T23:21:14.917Z,3.10
2022-09-30T23:23:41.888Z,4.10
2022-09-30T23:26:12.642Z,2.90
2022-09-30T23:28:39.243Z,3.07
2022-09-30T23:31:09.290Z,3.00
2022-09-30T23:33:46.925Z,2.77
2022-09-30T23:36:14.998Z,3.30
2022-09-30T23:38:41.807Z,3.63
2022-09-30T23:41:09.788Z,3.20
2022-09-30T23:43:37.040Z,3.47
2022-09-30T23:46:07.471Z,3.30
2022-09-30T23:48:35.681Z,3.37
2022-09-30T23:51:04.360Z,2.90
2022-09-30T23:53:31.807Z,2.60
2022-09-30T23:56:02.928Z,3.30
2022-09-30T23:58:30.132Z,3.83
